Time;durP1;ratioP1;P1;durP2;ratioP2;P2;SDS_P1;SDS_P2;PMS_P1;PMS_P2;Temp;Humidity;BMP_temperature;BMP_pressure;BME280_temperature;BME280_humidity;BME280_pressure;Samples;Min_cycle;Max_cycle;Signal;HPM_P1;HPM_P2
2021/08/18 00:01:08;;;;;;;10.53;5.03;;;12.70;97.30;;;;;;4953377;28;20462;-85
2021/08/18 00:03:34;;;;;;;9.77;5.57;;;12.70;97.30;;;;;;4954228;29;20724;-85
2021/08/18 00:05:59;;;;;;;12.77;5.97;;;12.70;97.30;;;;;;4954251;29;20585;-83
2021/08/18 00:08:25;;;;;;;9.50;4.37;;;12.60;97.30;;;;;;4954341;29;20247;-85
2021/08/18 00:10:50;;;;;;;13.80;5.40;;;12.60;97.30;;;;;;4955993;28;20250;-85
2021/08/18 00:13:18;;;;;;;9.70;4.80;;;12.60;97.30;;;;;;4956149;29;20646;-85
2021/08/18 00:15:44;;;;;;;12.50;5.13;;;12.60;97.30;;;;;;4956012;29;20693;-85
2021/08/18 00:18:09;;;;;;;11.80;4.73;;;12.60;97.30;;;;;;4955135;29;20491;-84
2021/08/18 00:20:35;;;;;;;16.03;5.83;;;12.60;97.30;;;;;;4954353;28;20199;-84
2021/08/18 00:23:01;;;;;;;12.50;4.77;;;12.50;97.30;;;;;;4954323;29;20578;-84
2021/08/18 00:25:27;;;;;;;8.97;4.30;;;12.50;97.30;;;;;;4955824;28;20203;-85
2021/08/18 00:27:53;;;;;;;11.27;4.87;;;12.50;97.30;;;;;;4952920;29;20193;-85
2021/08/18 00:30:19;;;;;;;13.17;4.97;;;12.50;97.30;;;;;;4954938;28;20415;-85
2021/08/18 00:32:44;;;;;;;8.93;5.10;;;12.50;97.30;;;;;;4953382;29;20559;-85
2021/08/18 00:35:10;;;;;;;9.90;5.17;;;12.50;97.30;;;;;;4953427;29;20255;-85
2021/08/18 00:37:36;;;;;;;10.20;5.07;;;12.50;97.30;;;;;;4954223;29;20283;-85
2021/08/18 00:40:01;;;;;;;10.90;5.00;;;12.50;97.30;;;;;;4954819;29;20175;-84
2021/08/18 00:42:27;;;;;;;10.77;4.90;;;12.40;97.30;;;;;;4955112;28;20229;-85
2021/08/18 00:44:54;;;;;;;9.87;5.53;;;12.40;97.30;;;;;;4954430;28;20175;-85
2021/08/18 00:47:19;;;;;;;10.80;4.70;;;12.40;97.30;;;;;;4953781;29;20816;-85
2021/08/18 00:49:45;;;;;;;8.33;4.73;;;12.30;97.30;;;;;;4954708;29;20482;-85
2021/08/18 00:52:10;;;;;;;10.23;4.90;;;12.30;97.30;;;;;;4953972;28;20278;-85
2021/08/18 00:54:36;;;;;;;12.20;5.40;;;12.30;97.30;;;;;;4952776;29;20171;-85
2021/08/18 00:57:03;;;;;;;11.47;4.60;;;12.30;97.30;;;;;;4952890;29;20179;-85
2021/08/18 00:59:30;;;;;;;11.50;5.50;;;12.30;97.30;;;;;;4954261;29;20261;-85
2021/08/18 01:01:56;;;;;;;11.30;4.77;;;12.30;97.30;;;;;;4952459;29;20439;-85
2021/08/18 01:04:21;;;;;;;12.17;5.17;;;12.20;97.30;;;;;;4953606;29;20474;-85
2021/08/18 01:06:47;;;;;;;11.50;6.10;;;12.30;97.30;;;;;;4955129;29;20467;-85
2021/08/18 01:09:18;;;;;;;13.40;5.60;;;12.30;97.30;;;;;;4954602;29;20186;-85
2021/08/18 01:11:46;;;;;;;11.40;5.03;;;12.20;97.30;;;;;;4954974;28;20191;-85
2021/08/18 01:14:12;;;;;;;11.07;4.77;;;12.20;97.30;;;;;;4953569;29;20442;-85
2021/08/18 01:16:41;;;;;;;9.20;4.53;;;12.20;97.30;;;;;;4953398;29;20852;-85
2021/08/18 01:19:07;;;;;;;12.57;5.00;;;12.20;97.30;;;;;;4954594;28;20205;-85
2021/08/18 01:21:38;;;;;;;13.67;4.90;;;12.20;97.30;;;;;;4952249;28;20446;-85
2021/08/18 01:24:04;;;;;;;13.47;5.33;;;12.20;97.30;;;;;;4952264;29;20438;-85
2021/08/18 01:26:31;;;;;;;9.13;4.30;;;12.30;97.30;;;;;;4953598;29;20458;-85
2021/08/18 01:28:58;;;;;;;10.87;5.07;;;12.30;97.30;;;;;;4952321;29;20473;-85
2021/08/18 01:31:23;;;;;;;13.43;5.00;;;12.20;97.30;;;;;;4952745;28;20929;-83
2021/08/18 01:33:49;;;;;;;8.50;5.57;;;12.20;97.30;;;;;;4955800;28;20429;-85
2021/08/18 01:36:14;;;;;;;10.77;5.27;;;12.20;97.30;;;;;;4954576;29;20183;-85
2021/08/18 01:38:40;;;;;;;14.53;5.30;;;12.20;97.30;;;;;;4953974;29;20180;-85
2021/08/18 01:41:05;;;;;;;13.17;5.10;;;12.20;97.30;;;;;;4954125;28;20211;-85
2021/08/18 01:43:31;;;;;;;9.80;5.00;;;12.10;97.30;;;;;;4956474;28;20190;-85
2021/08/18 01:45:56;;;;;;;8.07;4.27;;;12.10;97.30;;;;;;4973515;28;20264;-85
2021/08/18 01:48:24;;;;;;;12.10;4.33;;;12.10;97.30;;;;;;4955698;28;20174;-85
2021/08/18 01:50:52;;;;;;;9.07;3.83;;;12.00;97.30;;;;;;4955294;28;20209;-85
2021/08/18 01:53:20;;;;;;;13.20;4.80;;;12.00;97.30;;;;;;4955065;28;20426;-85
2021/08/18 01:55:46;;;;;;;7.97;4.43;;;12.00;97.30;;;;;;4955462;28;20425;-85
2021/08/18 01:58:12;;;;;;;17.30;6.60;;;12.00;97.30;;;;;;4975926;28;20488;-85
2021/08/18 02:00:38;;;;;;;10.33;5.03;;;11.90;97.30;;;;;;4961326;28;20429;-85
2021/08/18 02:03:04;;;;;;;11.90;5.07;;;11.90;97.30;;;;;;4978639;28;20183;-84
2021/08/18 02:05:29;;;;;;;13.90;5.77;;;11.80;97.30;;;;;;4961157;28;20630;-85
2021/08/18 02:07:55;;;;;;;11.37;4.80;;;11.80;97.30;;;;;;4977230;28;20185;-86
2021/08/18 02:10:22;;;;;;;11.10;5.10;;;11.80;97.30;;;;;;4960247;28;20257;-85
2021/08/18 02:12:48;;;;;;;12.20;5.03;;;11.80;97.30;;;;;;4960142;28;20178;-84
2021/08/18 02:15:24;;;;;;;8.10;4.33;;;11.80;97.30;;;;;;4959242;28;20420;-85
2021/08/18 02:17:50;;;;;;;10.60;4.73;;;11.80;97.30;;;;;;4958967;28;20447;-85
2021/08/18 02:20:19;;;;;;;12.53;5.67;;;11.80;97.30;;;;;;4958916;28;20418;-84
2021/08/18 02:22:45;;;;;;;11.23;4.87;;;11.80;97.30;;;;;;4977050;28;20210;-84
2021/08/18 02:25:11;;;;;;;11.60;5.63;;;11.80;97.30;;;;;;4959264;28;20447;-85
2021/08/18 02:27:37;;;;;;;14.67;5.37;;;11.80;97.30;;;;;;4960448;28;20175;-85
2021/08/18 02:30:04;;;;;;;11.10;5.50;;;11.80;97.30;;;;;;4960990;28;20642;-84
2021/08/18 02:32:30;;;;;;;13.30;5.70;;;11.90;97.30;;;;;;4960038;28;20685;-85
2021/08/18 02:34:55;;;;;;;11.53;4.83;;;11.90;97.30;;;;;;4959693;28;20420;-84
2021/08/18 02:37:21;;;;;;;14.07;5.77;;;11.90;97.30;;;;;;4977386;28;20170;-85
2021/08/18 02:39:46;;;;;;;12.57;5.60;;;11.90;97.30;;;;;;4959649;28;20835;-85
2021/08/18 02:42:12;;;;;;;14.37;5.97;;;11.90;97.30;;;;;;4958070;28;20228;-85
2021/08/18 02:44:37;;;;;;;9.30;5.37;;;12.00;97.30;;;;;;4975462;28;20190;-85
2021/08/18 02:47:03;;;;;;;12.33;5.20;;;12.00;97.30;;;;;;4976206;28;20293;-85
2021/08/18 02:49:29;;;;;;;11.13;4.87;;;12.00;97.30;;;;;;4958285;28;20272;-85
2021/08/18 02:51:54;;;;;;;21.40;6.10;;;12.00;97.30;;;;;;4959426;28;20202;-85
2021/08/18 02:54:20;;;;;;;13.17;5.17;;;12.10;97.30;;;;;;4960699;28;20189;-85
2021/08/18 02:56:45;;;;;;;10.90;4.97;;;12.10;97.30;;;;;;4971092;28;20246;-85
2021/08/18 02:59:11;;;;;;;12.90;5.10;;;12.20;97.30;;;;;;4959965;28;20552;-85
2021/08/18 03:01:38;;;;;;;11.57;5.27;;;12.20;97.30;;;;;;4958995;28;20198;-85
2021/08/18 03:04:04;;;;;;;14.57;5.50;;;12.30;97.30;;;;;;4959424;28;20687;-85
2021/08/18 03:06:29;;;;;;;14.97;5.73;;;12.30;97.30;;;;;;4958975;28;20473;-85
2021/08/18 03:08:54;;;;;;;12.30;5.27;;;12.30;97.30;;;;;;4957685;28;20178;-85
2021/08/18 03:11:20;;;;;;;10.67;5.37;;;12.40;97.30;;;;;;4957622;28;20186;-86
2021/08/18 03:13:45;;;;;;;14.00;5.70;;;12.40;97.30;;;;;;4958175;28;20178;-85
2021/08/18 03:16:11;;;;;;;12.50;5.13;;;12.40;97.30;;;;;;4976096;28;20649;-85
2021/08/18 03:18:37;;;;;;;14.70;5.73;;;12.40;97.30;;;;;;4959816;28;20194;-85
2021/08/18 03:21:02;;;;;;;18.30;5.97;;;12.40;97.30;;;;;;4972202;28;20198;-85
2021/08/18 03:23:28;;;;;;;10.37;4.97;;;12.40;97.30;;;;;;4992248;28;20174;-85
2021/08/18 03:25:53;;;;;;;14.10;5.23;;;12.40;97.30;;;;;;4975301;28;20638;-86
2021/08/18 03:28:19;;;;;;;12.60;5.70;;;12.40;97.30;;;;;;4974449;28;20182;-85
2021/08/18 03:30:44;;;;;;;12.37;5.37;;;12.40;97.30;;;;;;4975058;28;20202;-86
2021/08/18 03:33:10;;;;;;;13.13;4.93;;;12.40;97.30;;;;;;4974320;28;20205;-85
2021/08/18 03:35:36;;;;;;;12.80;5.13;;;12.40;97.30;;;;;;4966542;28;20221;-85
2021/08/18 03:38:01;;;;;;;11.97;5.30;;;12.40;97.30;;;;;;4958765;28;20182;-85
2021/08/18 03:40:27;;;;;;;15.17;5.53;;;12.30;97.30;;;;;;4957971;28;20186;-85
2021/08/18 03:42:52;;;;;;;9.60;4.67;;;12.30;97.30;;;;;;4958710;28;20260;-86
2021/08/18 03:45:18;;;;;;;11.63;5.10;;;12.40;97.30;;;;;;4959445;28;20646;-85
2021/08/18 03:47:44;;;;;;;10.57;4.73;;;12.40;97.30;;;;;;4960034;28;20179;-85
2021/08/18 03:50:10;;;;;;;9.27;5.17;;;12.40;97.30;;;;;;4958941;28;20193;-83
2021/08/18 03:52:40;;;;;;;10.80;5.20;;;12.50;97.30;;;;;;4958191;28;20186;-86
2021/08/18 03:55:06;;;;;;;12.57;5.40;;;12.50;97.30;;;;;;4958137;28;20481;-85
2021/08/18 03:57:32;;;;;;;8.87;4.83;;;12.50;97.30;;;;;;4975879;28;20414;-85
2021/08/18 03:59:59;;;;;;;10.13;4.10;;;12.60;97.30;;;;;;4957185;28;20996;-85
2021/08/18 04:02:26;;;;;;;9.80;4.53;;;12.60;97.30;;;;;;4956744;28;20202;-84
2021/08/18 04:04:52;;;;;;;10.20;4.27;;;12.70;97.30;;;;;;4957296;28;20508;-85
2021/08/18 04:07:17;;;;;;;10.27;4.47;;;12.70;97.30;;;;;;4957179;28;20560;-86
2021/08/18 04:09:43;;;;;;;8.27;4.10;;;12.80;97.30;;;;;;4958155;28;20189;-84
2021/08/18 04:12:08;;;;;;;9.40;4.37;;;12.80;97.30;;;;;;4958476;28;20198;-85
2021/08/18 04:14:34;;;;;;;19.50;5.27;;;12.90;97.30;;;;;;4976571;28;20175;-86
2021/08/18 04:16:59;;;;;;;10.53;4.60;;;12.90;97.30;;;;;;4958451;28;20186;-85
2021/08/18 04:19:25;;;;;;;11.23;4.60;;;12.90;97.30;;;;;;4957010;28;20214;-85
2021/08/18 04:21:50;;;;;;;12.80;4.73;;;13.00;97.30;;;;;;4957317;28;20721;-85
2021/08/18 04:24:17;;;;;;;7.23;4.20;;;13.00;97.30;;;;;;4957706;28;20193;-85
2021/08/18 04:26:42;;;;;;;9.77;3.83;;;13.10;97.30;;;;;;4956581;28;20210;-85
2021/08/18 04:29:08;;;;;;;10.33;4.60;;;13.10;97.30;;;;;;4956946;28;20422;-85
2021/08/18 04:31:33;;;;;;;11.17;4.80;;;13.10;97.30;;;;;;4956695;28;20442;-86
2021/08/18 04:33:59;;;;;;;10.90;5.03;;;13.20;97.30;;;;;;4957145;28;20325;-86
2021/08/18 04:36:24;;;;;;;10.93;4.00;;;13.20;97.30;;;;;;4958242;28;20210;-84
2021/08/18 04:38:50;;;;;;;11.53;4.80;;;13.30;97.30;;;;;;4958641;28;20672;-85
2021/08/18 04:41:15;;;;;;;13.73;4.80;;;13.30;97.30;;;;;;4975400;28;20226;-86
2021/08/18 04:43:41;;;;;;;7.57;3.80;;;13.40;97.30;;;;;;4957097;28;20217;-85
2021/08/18 04:46:06;;;;;;;9.43;4.57;;;13.40;97.30;;;;;;4957078;28;20211;-85
2021/08/18 04:48:32;;;;;;;7.73;4.33;;;13.40;97.30;;;;;;4959652;28;20662;-86
2021/08/18 04:50:59;;;;;;;9.20;4.50;;;13.50;97.30;;;;;;4956491;28;20206;-85
2021/08/18 04:53:25;;;;;;;9.43;4.13;;;13.50;97.30;;;;;;4954702;28;20732;-86
2021/08/18 04:55:50;;;;;;;5.23;3.00;;;13.50;97.30;;;;;;4956498;28;20513;-85
2021/08/18 04:58:16;;;;;;;11.67;4.77;;;13.60;97.30;;;;;;4973537;28;20529;-85
2021/08/18 05:00:41;;;;;;;7.87;3.70;;;13.60;97.30;;;;;;4956435;28;20202;-85
2021/08/18 05:03:12;;;;;;;6.50;3.67;;;13.70;97.30;;;;;;4957019;28;20197;-86
2021/08/18 05:05:37;;;;;;;7.50;3.53;;;13.70;97.30;;;;;;4957425;28;20245;-85
2021/08/18 05:08:06;;;;;;;7.50;4.27;;;13.70;97.30;;;;;;4957849;28;20442;-85
2021/08/18 05:10:32;;;;;;;9.27;4.23;;;13.80;97.30;;;;;;4956310;28;20453;-85
2021/08/18 05:12:58;;;;;;;9.00;3.90;;;13.80;97.30;;;;;;4975080;28;21237;-85
2021/08/18 05:15:23;;;;;;;9.93;3.63;;;13.90;97.30;;;;;;4956879;28;20653;-83
2021/08/18 05:17:49;;;;;;;7.57;3.47;;;13.90;97.30;;;;;;4956252;28;20170;-85
2021/08/18 05:20:15;;;;;;;7.40;3.60;;;13.90;97.30;;;;;;4955491;28;20418;-85
2021/08/18 05:22:40;;;;;;;7.60;3.40;;;14.00;97.30;;;;;;4955295;28;20170;-85
2021/08/18 05:25:07;;;;;;;6.63;3.27;;;14.00;97.30;;;;;;4956427;28;20181;-84
2021/08/18 05:27:33;;;;;;;7.63;3.60;;;14.00;97.30;;;;;;4956351;28;20289;-85
2021/08/18 05:29:58;;;;;;;10.17;3.90;;;14.00;97.30;;;;;;4957230;28;20521;-85
2021/08/18 05:32:24;;;;;;;5.83;3.30;;;14.10;97.30;;;;;;4957449;28;20445;-85
2021/08/18 05:34:49;;;;;;;7.87;3.53;;;14.10;97.30;;;;;;4957592;28;20541;-85
2021/08/18 05:37:15;;;;;;;9.50;3.50;;;14.20;97.30;;;;;;4956283;28;20182;-85
2021/08/18 05:39:40;;;;;;;7.53;3.27;;;14.20;97.30;;;;;;4956271;28;20184;-85
2021/08/18 05:42:06;;;;;;;8.70;3.30;;;14.30;97.30;;;;;;4953311;28;20266;-85
2021/08/18 05:44:31;;;;;;;5.60;3.13;;;14.30;97.30;;;;;;4953479;29;20250;-85
2021/08/18 05:46:57;;;;;;;6.20;3.47;;;14.30;97.30;;;;;;4951802;29;20301;-85
2021/08/18 05:49:22;;;;;;;9.40;3.50;;;14.40;97.30;;;;;;4951958;29;20183;-85
2021/08/18 05:51:49;;;;;;;6.53;3.20;;;14.40;97.30;;;;;;4952362;28;20354;-84
2021/08/18 05:54:15;;;;;;;9.07;3.93;;;14.50;97.30;;;;;;4952623;29;20183;-85
2021/08/18 05:56:41;;;;;;;6.80;3.97;;;14.50;97.30;;;;;;4953130;29;20837;-85
2021/08/18 05:59:08;;;;;;;5.00;3.00;;;14.50;97.30;;;;;;4953556;29;20217;-85
2021/08/18 06:01:34;;;;;;;5.10;2.70;;;14.50;97.30;;;;;;4953447;28;20682;-85
2021/08/18 06:03:59;;;;;;;10.70;4.43;;;14.60;97.30;;;;;;4953694;29;20430;-86
2021/08/18 06:06:25;;;;;;;5.03;2.93;;;14.60;97.30;;;;;;4952747;29;20249;-85
2021/08/18 06:08:50;;;;;;;8.43;3.70;;;14.60;97.30;;;;;;4953162;29;20465;-85
2021/08/18 06:11:16;;;;;;;6.97;2.90;;;14.60;97.30;;;;;;4952571;28;20582;-85
2021/08/18 06:13:41;;;;;;;6.30;3.30;;;14.60;97.30;;;;;;4950654;28;20270;-85
2021/08/18 06:16:07;;;;;;;13.60;3.50;;;14.60;97.30;;;;;;4953385;28;20175;-85
2021/08/18 06:18:32;;;;;;;3.57;2.63;;;14.60;97.30;;;;;;4951976;29;20175;-85
2021/08/18 06:20:58;;;;;;;6.73;3.23;;;14.70;97.30;;;;;;4952140;29;20231;-85
2021/08/18 06:23:27;;;;;;;4.00;2.43;;;14.80;97.30;;;;;;4952616;29;20183;-86
2021/08/18 06:25:53;;;;;;;8.40;3.27;;;14.80;97.30;;;;;;4953619;29;20285;-86
2021/08/18 06:28:19;;;;;;;4.20;2.70;;;14.80;97.30;;;;;;4953518;29;20411;-85
2021/08/18 06:30:45;;;;;;;7.07;3.20;;;14.80;97.30;;;;;;4954928;28;20442;-85
2021/08/18 06:33:11;;;;;;;6.50;2.77;;;14.80;97.30;;;;;;4952882;29;20518;-86
2021/08/18 06:35:36;;;;;;;7.97;3.43;;;14.90;97.30;;;;;;4952578;29;20207;-86
2021/08/18 06:38:02;;;;;;;5.83;3.20;;;14.90;97.30;;;;;;4953175;29;20744;-85
2021/08/18 06:40:28;;;;;;;8.47;2.73;;;14.90;97.30;;;;;;4943160;29;20534;-85
2021/08/18 06:42:53;;;;;;;7.03;2.77;;;14.90;97.30;;;;;;4938411;29;20600;-84
2021/08/18 06:45:19;;;;;;;8.37;2.60;;;14.90;97.30;;;;;;4955688;29;20262;-85
2021/08/18 06:47:44;;;;;;;6.63;3.30;;;14.90;97.30;;;;;;4955568;29;20188;-85
2021/08/18 06:50:11;;;;;;;9.50;4.40;;;14.80;97.30;;;;;;4956029;28;20207;-84
2021/08/18 06:52:37;;;;;;;7.20;3.47;;;14.90;97.30;;;;;;4957009;29;20186;-86
2021/08/18 06:55:04;;;;;;;6.07;3.03;;;14.90;97.30;;;;;;4957322;29;20469;-87
2021/08/18 06:57:29;;;;;;;8.90;3.93;;;14.90;97.30;;;;;;4956508;29;20425;-84
2021/08/18 06:59:54;;;;;;;6.70;3.37;;;14.90;97.30;;;;;;4956288;29;20427;-85
2021/08/18 07:02:20;;;;;;;5.70;3.47;;;14.90;97.30;;;;;;4955837;29;20210;-85
2021/08/18 07:04:45;;;;;;;7.53;4.07;;;14.80;97.30;;;;;;4955470;29;20294;-85
2021/08/18 07:07:12;;;;;;;4.67;2.77;;;14.80;97.30;;;;;;4954983;29;20207;-86
2021/08/18 07:09:37;;;;;;;6.13;3.13;;;14.80;97.30;;;;;;4955124;29;20179;-85
2021/08/18 07:12:03;;;;;;;6.43;3.27;;;14.80;97.30;;;;;;4955202;28;20502;-85
2021/08/18 07:14:28;;;;;;;5.67;3.13;;;14.80;97.30;;;;;;4954785;29;20185;-85
2021/08/18 07:16:54;;;;;;;4.03;2.80;;;14.80;97.30;;;;;;4956262;29;20190;-85
2021/08/18 07:19:19;;;;;;;4.60;2.40;;;14.90;97.30;;;;;;4956090;29;20524;-86
2021/08/18 07:21:45;;;;;;;5.43;2.63;;;15.00;97.30;;;;;;4956858;28;20633;-85
2021/08/18 07:24:10;;;;;;;5.03;2.40;;;15.10;97.30;;;;;;4957051;28;20187;-85
2021/08/18 07:26:36;;;;;;;6.57;3.30;;;15.20;97.30;;;;;;4955559;29;20210;-85
2021/08/18 07:29:01;;;;;;;4.90;2.40;;;15.30;97.30;;;;;;4955740;29;20171;-84
2021/08/18 07:31:27;;;;;;;4.77;3.00;;;15.40;97.30;;;;;;4956815;29;20195;-86
2021/08/18 07:33:54;;;;;;;3.00;2.20;;;15.40;97.30;;;;;;4954026;29;20183;-85
2021/08/18 07:36:20;;;;;;;5.40;2.83;;;15.50;97.30;;;;;;4954278;29;20274;-85
2021/08/18 07:38:45;;;;;;;6.33;3.03;;;15.50;97.30;;;;;;4956100;28;20501;-85
2021/08/18 07:41:11;;;;;;;9.33;3.40;;;15.60;97.30;;;;;;4956051;28;20546;-86
2021/08/18 07:43:36;;;;;;;5.40;3.20;;;15.70;97.30;;;;;;4957656;28;20197;-85
2021/08/18 07:46:02;;;;;;;5.80;2.80;;;15.80;97.30;;;;;;4959216;28;20210;-84
2021/08/18 07:48:29;;;;;;;6.83;3.23;;;15.90;97.30;;;;;;4959418;28;20177;-85
2021/08/18 07:50:55;;;;;;;12.87;2.50;;;16.00;97.30;;;;;;4959221;28;20199;-83
2021/08/18 07:53:21;;;;;;;8.23;3.03;;;16.10;97.30;;;;;;4958013;28;20426;-84
2021/08/18 07:55:46;;;;;;;7.17;4.23;;;16.10;97.30;;;;;;4957053;28;20273;-85
2021/08/18 07:58:12;;;;;;;4.03;2.43;;;16.10;97.30;;;;;;4974749;28;20179;-85
2021/08/18 08:00:40;;;;;;;5.57;2.30;;;16.20;97.30;;;;;;4957289;28;20191;-84
2021/08/18 08:03:07;;;;;;;7.47;3.60;;;16.20;97.30;;;;;;4956350;28;20179;-84
2021/08/18 08:05:34;;;;;;;4.13;2.83;;;16.30;97.30;;;;;;4957173;28;20449;-84
2021/08/18 08:07:59;;;;;;;6.67;3.63;;;16.40;97.30;;;;;;4956567;28;20425;-84
2021/08/18 08:10:25;;;;;;;5.00;3.10;;;16.50;97.30;;;;;;4956494;28;20509;-85
2021/08/18 08:12:50;;;;;;;6.93;4.00;;;16.50;97.30;;;;;;4958737;28;20183;-85
2021/08/18 08:15:16;;;;;;;4.50;2.97;;;16.60;97.30;;;;;;4958542;28;20182;-85
2021/08/18 08:17:41;;;;;;;7.97;3.20;;;16.60;97.30;;;;;;4959708;28;20174;-84
2021/08/18 08:20:09;;;;;;;7.27;3.40;;;16.70;97.30;;;;;;4957992;28;20673;-85
2021/08/18 08:22:35;;;;;;;5.07;3.30;;;16.80;97.30;;;;;;4957639;28;20222;-85
2021/08/18 08:25:00;;;;;;;6.10;3.10;;;16.90;97.30;;;;;;4957256;28;21023;-85
2021/08/18 08:27:26;;;;;;;6.13;3.30;;;17.00;97.30;;;;;;4974864;28;20233;-83
2021/08/18 08:29:51;;;;;;;5.13;3.83;;;17.10;97.30;;;;;;4973750;28;20641;-85
2021/08/18 08:32:17;;;;;;;5.23;3.43;;;17.20;97.30;;;;;;4956843;28;20198;-85
2021/08/18 08:34:42;;;;;;;4.53;3.27;;;17.20;97.30;;;;;;4956689;28;20202;-85
2021/08/18 08:37:08;;;;;;;8.80;3.50;;;17.20;97.30;;;;;;4974332;28;20260;-85
2021/08/18 08:39:33;;;;;;;6.97;3.30;;;17.20;97.30;;;;;;4957669;28;20182;-84
2021/08/18 08:42:02;;;;;;;3.87;2.80;;;17.20;97.30;;;;;;4958503;28;20776;-85
2021/08/18 08:44:28;;;;;;;5.30;3.33;;;17.20;97.30;;;;;;4958382;28;20189;-83
2021/08/18 08:46:54;;;;;;;4.80;3.40;;;17.20;97.30;;;;;;4957788;28;20461;-84
2021/08/18 08:49:21;;;;;;;3.70;2.87;;;17.30;97.30;;;;;;4957900;28;20247;-85
2021/08/18 08:51:49;;;;;;;7.20;3.43;;;17.20;97.30;;;;;;4957479;28;20986;-83
2021/08/18 08:54:15;;;;;;;4.83;2.97;;;17.30;97.30;;;;;;4956434;28;20429;-85
2021/08/18 08:56:41;;;;;;;4.30;2.10;;;17.40;97.30;;;;;;4956144;28;20430;-86
2021/08/18 08:59:07;;;;;;;5.80;2.60;;;17.40;97.30;;;;;;4956453;28;20429;-85
2021/08/18 09:02:02;;;;;;;2.70;2.13;;;17.50;97.30;;;;;;4956300;28;20445;-84
2021/08/18 09:04:38;;;;;;;4.13;2.30;;;17.50;97.30;;;;;;4956195;28;20613;-83
2021/08/18 09:07:08;;;;;;;3.70;2.60;;;17.50;97.30;;;;;;4957157;28;20461;-84
2021/08/18 09:09:35;;;;;;;2.53;2.07;;;17.60;97.30;;;;;;4958268;28;20539;-86
2021/08/18 09:12:06;;;;;;;3.40;2.17;;;17.70;97.30;;;;;;4958194;28;20448;-83
2021/08/18 09:14:31;;;;;;;5.07;2.77;;;17.80;97.30;;;;;;4956906;28;20952;-85
2021/08/18 09:16:57;;;;;;;3.00;2.20;;;17.90;97.30;;;;;;4974073;28;20422;-85
2021/08/18 09:19:30;;;;;;;3.97;2.70;;;18.10;97.30;;;;;;4957471;28;20182;-85
2021/08/18 09:22:06;;;;;;;4.23;3.03;;;18.10;97.30;;;;;;4956736;28;20217;-84
2021/08/18 09:24:32;;;;;;;4.47;2.93;;;18.10;97.30;;;;;;4955082;28;20484;-84
2021/08/18 09:27:08;;;;;;;5.70;3.20;;;18.10;97.30;;;;;;4956084;28;20457;-85
2021/08/18 09:29:42;;;;;;;2.60;2.10;;;18.20;97.30;;;;;;4956425;28;20409;-85
2021/08/18 09:32:37;;;;;;;4.17;2.83;;;18.20;97.30;;;;;;4955823;28;20454;-85
2021/08/18 09:35:10;;;;;;;2.60;2.30;;;18.20;97.30;;;;;;4952429;28;20437;-85
2021/08/18 09:37:38;;;;;;;3.00;1.90;;;18.30;97.30;;;;;;4957599;28;20425;-85
2021/08/18 09:40:22;;;;;;;4.20;2.70;;;18.20;97.30;;;;;;4956955;28;20923;-85
2021/08/18 09:42:48;;;;;;;2.80;2.20;;;18.20;97.30;;;;;;4953177;29;20549;-85
2021/08/18 09:45:16;;;;;;;4.47;2.77;;;18.10;97.30;;;;;;4952947;29;20453;-85
2021/08/18 09:47:55;;;;;;;2.60;2.00;;;18.10;97.30;;;;;;4953315;29;20462;-85
2021/08/18 09:50:22;;;;;;;3.47;2.00;;;18.10;97.30;;;;;;4952934;28;20433;-85
2021/08/18 09:52:50;;;;;;;5.60;2.23;;;18.20;97.30;;;;;;4954972;29;20861;-85
2021/08/18 09:55:23;;;;;;;4.47;2.00;;;18.10;97.30;;;;;;4959851;29;20426;-85
2021/08/18 09:57:50;;;;;;;4.97;2.30;;;18.10;97.30;;;;;;4957404;28;20462;-85
2021/08/18 10:00:16;;;;;;;2.17;2.00;;;18.10;97.30;;;;;;4952022;28;20439;-84
2021/08/18 10:02:43;;;;;;;2.03;1.70;;;18.10;97.30;;;;;;4953641;29;20419;-85
2021/08/18 10:05:09;;;;;;;3.00;2.23;;;18.20;97.30;;;;;;4954068;29;20442;-85
2021/08/18 10:07:35;;;;;;;2.03;1.70;;;18.40;97.30;;;;;;4954056;29;20475;-84
2021/08/18 10:10:03;;;;;;;4.40;2.40;;;18.50;97.30;;;;;;4954668;29;20446;-84
2021/08/18 10:12:30;;;;;;;2.13;1.70;;;18.60;97.30;;;;;;4954578;29;20992;-83
2021/08/18 10:14:55;;;;;;;2.70;1.83;;;18.70;97.30;;;;;;4953103;29;20426;-85
2021/08/18 10:17:21;;;;;;;2.97;1.50;;;18.70;97.30;;;;;;4954210;28;20419;-85
2021/08/18 10:19:51;;;;;;;4.07;2.10;;;18.70;97.30;;;;;;4955210;29;20225;-85
2021/08/18 10:22:26;;;;;;;5.17;2.17;;;18.80;97.30;;;;;;4955396;28;20207;-84
2021/08/18 10:24:52;;;;;;;2.97;2.10;;;18.90;97.30;;;;;;4956145;29;20444;-85
2021/08/18 10:27:44;;;;;;;2.47;1.77;;;18.80;97.30;;;;;;4955986;29;20561;-84
2021/08/18 10:30:23;;;;;;;2.83;1.93;;;18.80;97.30;;;;;;4955925;29;20179;-85
2021/08/18 10:32:49;;;;;;;3.13;1.87;;;18.70;97.30;;;;;;4957554;29;20419;-84
2021/08/18 10:35:33;;;;;;;2.90;1.90;;;18.40;97.30;;;;;;4957203;29;20778;-84
2021/08/18 10:38:24;;;;;;;3.40;2.00;;;18.00;97.30;;;;;;4957317;29;20410;-85
2021/08/18 10:40:53;;;;;;;2.27;1.80;;;17.80;97.30;;;;;;4957331;28;20461;-84
2021/08/18 10:43:50;;;;;;;2.97;1.50;;;17.60;97.30;;;;;;4956465;29;20470;-83
2021/08/18 10:46:17;;;;;;;2.20;1.87;;;17.40;97.30;;;;;;4956422;29;20481;-84
2021/08/18 10:48:54;;;;;;;7.40;2.37;;;17.50;97.30;;;;;;4955476;29;20423;-84
2021/08/18 10:51:39;;;;;;;3.17;2.00;;;17.40;97.30;;;;;;4955143;28;20721;-84
2021/08/18 10:54:29;;;;;;;2.80;1.90;;;17.40;97.30;;;;;;4954734;29;20421;-82
2021/08/18 10:56:59;;;;;;;2.40;1.63;;;17.40;97.30;;;;;;4955432;29;20869;-82
2021/08/18 10:59:37;;;;;;;3.80;1.83;;;17.40;97.30;;;;;;4954858;28;20446;-84
2021/08/18 11:02:29;;;;;;;4.73;2.00;;;17.40;97.30;;;;;;4958493;28;20434;-83
2021/08/18 11:04:54;;;;;;;1.70;1.40;;;17.50;97.30;;;;;;4951086;29;20434;-84
2021/08/18 11:07:20;;;;;;;1.40;1.33;;;17.60;97.30;;;;;;4955973;29;20836;-84
2021/08/18 11:09:48;;;;;;;1.30;1.20;;;17.70;97.30;;;;;;4944349;29;20643;-85
2021/08/18 11:12:39;;;;;;;1.60;1.40;;;17.80;97.30;;;;;;4936776;29;20196;-84
2021/08/18 11:15:24;;;;;;;2.03;1.40;;;18.00;97.30;;;;;;4951143;29;20419;-84
2021/08/18 11:17:51;;;;;;;1.97;1.70;;;18.10;97.30;;;;;;4943866;29;20422;-84
2021/08/18 11:20:22;;;;;;;2.00;1.30;;;18.30;97.30;;;;;;4953414;29;20941;-85
2021/08/18 11:22:58;;;;;;;2.60;1.87;;;18.40;97.30;;;;;;4977810;28;20859;-84
2021/08/18 11:25:24;;;;;;;5.63;1.70;;;18.50;97.30;;;;;;4953224;29;20824;-83
2021/08/18 11:27:51;;;;;;;2.80;1.70;;;18.70;97.30;;;;;;4955382;29;20542;-84
2021/08/18 11:30:27;;;;;;;2.67;2.03;;;18.90;97.30;;;;;;4955913;28;20422;-85
2021/08/18 11:32:52;;;;;;;4.30;1.63;;;19.10;97.30;;;;;;4955266;29;20422;-84
2021/08/18 11:35:31;;;;;;;2.23;1.80;;;19.40;97.30;;;;;;4955201;28;20406;-85
2021/08/18 11:38:04;;;;;;;2.70;1.87;;;19.60;97.30;;;;;;4955254;29;20727;-85
2021/08/18 11:40:31;;;;;;;3.10;1.80;;;19.60;97.30;;;;;;4960540;28;20437;-84
2021/08/18 11:42:57;;;;;;;3.30;1.90;;;19.70;97.30;;;;;;4973296;28;20465;-85
2021/08/18 11:45:23;;;;;;;2.70;1.97;;;19.90;97.30;;;;;;4956892;28;20423;-81
2021/08/18 11:47:48;;;;;;;2.60;1.90;;;20.00;96.80;;;;;;4953677;29;20526;-85
2021/08/18 11:50:15;;;;;;;2.40;1.80;;;19.90;96.80;;;;;;4954098;28;20207;-85
2021/08/18 11:52:41;;;;;;;2.53;1.77;;;19.80;97.30;;;;;;4954265;29;20185;-83
2021/08/18 11:55:07;;;;;;;5.50;1.80;;;19.90;97.30;;;;;;4954660;29;20431;-84
2021/08/18 11:57:33;;;;;;;3.27;1.80;;;20.10;96.50;;;;;;4957534;29;20419;-83
2021/08/18 12:00:05;;;;;;;2.50;1.60;;;20.00;95.10;;;;;;4955365;29;21045;-84
2021/08/18 12:02:32;;;;;;;2.30;1.80;;;20.10;94.80;;;;;;4956243;29;20447;-84
2021/08/18 12:05:00;;;;;;;1.60;1.50;;;20.30;95.50;;;;;;4954417;29;20431;-83
2021/08/18 12:07:30;;;;;;;2.07;1.40;;;20.70;93.90;;;;;;4956352;29;20459;-83
2021/08/18 12:10:16;;;;;;;3.47;1.97;;;21.00;93.30;;;;;;4953931;29;20423;-84
2021/08/18 12:12:42;;;;;;;2.10;1.50;;;21.20;93.50;;;;;;4954297;29;20430;-84
2021/08/18 12:15:15;;;;;;;4.80;2.67;;;21.20;91.90;;;;;;4954003;29;20975;-84
2021/08/18 12:17:43;;;;;;;1.83;1.73;;;20.90;89.90;;;;;;4953746;29;20489;-84
2021/08/18 12:20:33;;;;;;;3.50;2.07;;;20.60;91.10;;;;;;4955464;28;20510;-80
2021/08/18 12:23:00;;;;;;;5.13;1.97;;;20.50;91.40;;;;;;4955053;29;20489;-82
2021/08/18 12:25:34;;;;;;;3.70;2.10;;;20.30;91.60;;;;;;4955050;29;20426;-83
2021/08/18 12:28:17;;;;;;;4.80;2.10;;;20.20;92.10;;;;;;4955261;29;20485;-82
2021/08/18 12:30:55;;;;;;;2.47;1.93;;;20.10;92.50;;;;;;4954970;28;20451;-83
2021/08/18 12:33:20;;;;;;;2.87;2.20;;;20.10;92.80;;;;;;4954065;29;20414;-82
2021/08/18 12:36:02;;;;;;;5.60;2.40;;;20.30;94.50;;;;;;4954925;28;20992;-84
2021/08/18 12:38:27;;;;;;;3.33;2.30;;;20.40;92.30;;;;;;4953504;29;20187;-84
2021/08/18 12:41:05;;;;;;;2.10;1.93;;;20.20;92.30;;;;;;4952302;28;20446;-84
2021/08/18 12:43:31;;;;;;;4.07;1.90;;;20.00;93.40;;;;;;4953016;28;20194;-85
2021/08/18 12:45:56;;;;;;;2.97;2.10;;;19.80;92.80;;;;;;4953865;28;20676;-84